Impacts TAF Board
For situational awareness. Not to be used for flight planning purposes.
IDs:

KMSP - Minneapolis-St Paul, MN, US

Issued at 0335 UTC 21 Sep 2018
Updated at 0437 UTC 21 Sep 2018
Potential Impact None Slight Moderate High
Time<<22/05Z 22/06Z 22/07Z 22/08Z 22/09Z 22/10Z 22/11Z 22/12Z 22/13Z 22/14Z 22/15Z 22/16Z 22/17Z
Type PRVL
VIS >6
CIG 90
Cover BKN
FltCat VFR
WX --
WDir 330
WSpd 12
WGst 19
Raw TAF
KMSP 210335Z 2104/2206 25013G20KT P6SM BKN012 OVC025
  FM211000 28015G25KT P6SM OVC008
  FM211600 31017G28KT P6SM BKN015
  FM212100 33012G19KT P6SM BKN090


METAR Board
Radar Display
Forecast Discussion
For situational awareness. Not to be used for flight planning purposes.